< Typhoon 198013 1980 Season Typhoon 198015 >
Typhoon 198014 (PERCY)
General InformationTrack Information on Google MapsDetailed Wind Information || Disaster Info.ResourceGoogle EarthGE AnimationAtom FeedGeoJSON
Detalied Best Track (Time Zone = UTC)
Year Month Day Hour Lat. Long. Pressure (hPa) Wind (kt) Class Image Chart
1980 9 13 06 17.0 134.0 1002 0 2 -- Chart
1980 9 13 12 17.3 133.4 1000 0 2 -- Chart
1980 9 13 18 17.6 132.7 998 0 2 -- Chart
1980 9 14 00 18.0 132.0 996 40 3 -- Chart
1980 9 14 06 18.3 131.0 992 45 3 -- Chart
1980 9 14 12 18.7 129.9 992 45 3 -- Chart
1980 9 14 18 18.7 129.0 990 45 3 -- Chart
1980 9 15 00 18.7 128.3 990 50 4 -- Chart
1980 9 15 06 18.7 127.5 985 50 4 -- Chart
1980 9 15 12 18.7 126.8 985 50 4 -- Chart
1980 9 15 18 18.7 126.5 980 55 4 -- Chart
1980 9 16 00 18.7 126.4 975 55 4 -- Chart
1980 9 16 06 19.0 125.9 970 70 5 -- Chart
1980 9 16 12 19.3 125.5 970 70 5 -- Chart
1980 9 16 18 19.6 125.1 965 70 5 -- Chart
1980 9 17 00 19.9 124.6 950 70 5 -- Chart
1980 9 17 06 20.3 123.9 945 90 5 -- Chart
1980 9 17 12 20.7 123.1 915 90 5 -- Chart
1980 9 17 18 21.1 122.1 915 100 5 -- Chart
1980 9 18 00 21.8 121.1 920 100 5 -- Chart
1980 9 18 06 22.4 119.8 940 90 5 -- Chart
1980 9 18 12 23.0 118.8 960 80 5 -- Chart
1980 9 18 18 23.5 117.8 980 55 4 -- Chart
1980 9 19 00 24.0 116.8 1000 0 2 -- Chart
1980 9 19 06 25.0 116.0 1004 0 2 -- Chart
Japan Meteorological Agency Best Track Data | Correction Date : 1992-10-21
< Typhoon 198013 1980 Season Typhoon 198015 >

Help